createdAt,value
2023-03-19T00:00:45.708Z,42.50
2023-03-19T00:03:36.865Z,41.90
2023-03-19T00:06:08.178Z,41.00
2023-03-19T00:08:39.210Z,42.40
2023-03-19T00:11:10.201Z,46.00
2023-03-19T00:13:41.497Z,40.40
2023-03-19T00:16:12.307Z,38.30
2023-03-19T00:18:43.190Z,41.30
2023-03-19T00:21:13.910Z,36.70
2023-03-19T00:23:45.016Z,36.60
2023-03-19T00:26:15.594Z,38.20
2023-03-19T00:28:47.483Z,42.90
2023-03-19T00:31:18.575Z,40.90
2023-03-19T00:33:49.373Z,46.60
2023-03-19T00:36:20.559Z,45.20
2023-03-19T00:38:51.795Z,48.40
2023-03-19T00:41:22.971Z,51.70
2023-03-19T00:43:56.018Z,50.90
2023-03-19T00:46:27.679Z,52.80
2023-03-19T00:48:59.138Z,51.10
2023-03-19T00:51:29.784Z,48.90
2023-03-19T00:54:00.395Z,46.60
2023-03-19T00:56:31.233Z,46.70
2023-03-19T00:59:02.580Z,51.90
2023-03-19T01:01:33.427Z,52.40
2023-03-19T01:04:05.408Z,61.00
2023-03-19T01:06:36.107Z,55.20
2023-03-19T01:09:07.040Z,52.40
2023-03-19T01:11:39.409Z,53.70
2023-03-19T01:14:11.305Z,51.80
2023-03-19T01:16:42.104Z,49.20
2023-03-19T01:19:13.159Z,50.50
2023-03-19T01:21:46.675Z,45.90
2023-03-19T01:24:20.860Z,41.70
2023-03-19T01:26:56.313Z,40.00
2023-03-19T01:29:38.099Z,46.40
2023-03-19T01:32:28.834Z,39.20
2023-03-19T01:35:35.623Z,45.50
2023-03-19T01:38:06.717Z,45.10
2023-03-19T01:40:37.742Z,48.10
2023-03-19T01:43:19.257Z,47.60
2023-03-19T01:46:02.010Z,45.00
2023-03-19T01:48:52.870Z,48.30
2023-03-19T01:51:25.857Z,45.50
2023-03-19T01:54:05.036Z,44.50
2023-03-19T01:56:50.806Z,48.90
2023-03-19T01:59:30.023Z,51.80
2023-03-19T02:02:15.681Z,52.90
2023-03-19T02:04:47.734Z,51.60
2023-03-19T02:07:18.774Z,44.20
2023-03-19T02:09:49.623Z,47.70
2023-03-19T02:12:20.656Z,47.00
2023-03-19T02:14:51.185Z,49.80
2023-03-19T02:17:23.069Z,50.80
2023-03-19T02:19:58.398Z,53.40
2023-03-19T02:22:30.825Z,53.30
2023-03-19T02:25:03.952Z,48.70
2023-03-19T02:27:35.012Z,46.90
2023-03-19T02:30:19.369Z,48.60
2023-03-19T02:32:50.310Z,50.10
2023-03-19T02:35:21.736Z,51.70
2023-03-19T02:37:52.504Z,48.90
2023-03-19T02:40:24.957Z,49.10
2023-03-19T02:42:55.766Z,46.50
2023-03-19T02:45:29.217Z,45.70
2023-03-19T02:48:00.371Z,46.20
2023-03-19T02:50:31.518Z,45.80
2023-03-19T02:53:01.981Z,46.70
2023-03-19T02:55:33.016Z,49.90
2023-03-19T02:58:03.648Z,48.80
2023-03-19T03:00:34.929Z,48.50
2023-03-19T03:03:06.832Z,52.40
2023-03-19T03:05:38.019Z,48.10
2023-03-19T03:08:08.429Z,45.40
2023-03-19T03:10:39.476Z,48.80
2023-03-19T03:13:09.857Z,49.30
2023-03-19T03:15:41.024Z,52.60
2023-03-19T03:18:11.569Z,53.50
2023-03-19T03:20:42.706Z,53.00
2023-03-19T03:23:13.163Z,51.60
2023-03-19T03:25:44.003Z,53.70
2023-03-19T03:28:15.043Z,53.80
2023-03-19T03:30:46.112Z,57.30
2023-03-19T03:33:17.635Z,56.50
2023-03-19T03:35:49.197Z,57.00
2023-03-19T03:38:19.991Z,57.40
2023-03-19T03:40:52.763Z,57.40
2023-03-19T03:43:23.921Z,59.80
2023-03-19T03:45:55.484Z,55.90
2023-03-19T03:48:26.210Z,57.70
2023-03-19T03:50:57.279Z,59.10
2023-03-19T03:53:29.920Z,59.00
2023-03-19T03:56:01.179Z,51.50
2023-03-19T03:58:31.810Z,52.60
2023-03-19T04:01:03.178Z,49.10
2023-03-19T04:03:35.053Z,46.60
2023-03-19T04:06:06.648Z,41.90
2023-03-19T04:08:37.204Z,39.80
2023-03-19T04:11:09.482Z,40.40
2023-03-19T04:13:40.200Z,38.00
2023-03-19T04:16:12.501Z,42.90
2023-03-19T04:18:42.990Z,41.40
2023-03-19T04:21:14.237Z,49.90
2023-03-19T04:23:44.979Z,45.00
2023-03-19T04:26:16.427Z,47.00
2023-03-19T04:28:47.222Z,46.10
2023-03-19T04:31:18.246Z,48.30
2023-03-19T04:33:49.420Z,47.50
2023-03-19T04:36:20.789Z,46.90
2023-03-19T04:38:51.609Z,48.20
2023-03-19T04:41:23.697Z,50.50
2023-03-19T04:44:10.311Z,51.30
2023-03-19T04:46:44.952Z,51.10
2023-03-19T04:51:47.138Z,49.70
2023-03-19T04:54:18.973Z,48.30
2023-03-19T04:56:49.892Z,50.40
2023-03-19T04:59:22.873Z,53.60
2023-03-19T05:01:54.434Z,53.30
2023-03-19T05:04:26.911Z,50.40
2023-03-19T05:06:59.796Z,46.30
2023-03-19T05:09:31.156Z,51.00
2023-03-19T05:12:02.068Z,46.50
2023-03-19T05:14:35.476Z,48.00
2023-03-19T05:17:17.873Z,50.40
2023-03-19T05:19:54.039Z,49.70
2023-03-19T05:22:25.276Z,51.70
2023-03-19T05:24:58.685Z,50.50
2023-03-19T05:27:30.683Z,46.00
2023-03-19T05:30:13.782Z,49.50
2023-03-19T05:33:04.182Z,53.10
2023-03-19T05:35:39.347Z,46.60
2023-03-19T05:38:15.821Z,54.10
2023-03-19T05:40:47.436Z,51.10
2023-03-19T05:43:33.000Z,51.10
2023-03-19T05:46:04.841Z,51.00
2023-03-19T05:48:37.127Z,50.50
2023-03-19T05:51:08.119Z,52.20
2023-03-19T05:53:43.118Z,51.40
2023-03-19T05:56:32.566Z,53.80
2023-03-19T05:59:17.338Z,54.70
2023-03-19T06:01:52.015Z,55.50
2023-03-19T06:04:23.536Z,51.40
2023-03-19T06:06:54.188Z,52.70
2023-03-19T06:09:25.593Z,50.60
2023-03-19T06:11:59.504Z,48.50
2023-03-19T06:14:49.272Z,54.30
2023-03-19T06:17:46.017Z,51.70
2023-03-19T06:20:19.115Z,55.10
2023-03-19T06:22:49.692Z,50.90
2023-03-19T06:25:20.972Z,46.50
2023-03-19T06:27:51.712Z,44.90
2023-03-19T06:30:27.985Z,44.80
2023-03-19T06:32:59.987Z,45.80
2023-03-19T06:35:32.427Z,45.40
2023-03-19T06:38:02.936Z,44.60
2023-03-19T06:40:33.944Z,46.00
2023-03-19T06:43:04.624Z,44.30
2023-03-19T06:45:35.790Z,45.90
2023-03-19T06:48:06.936Z,42.00
2023-03-19T06:50:38.042Z,43.30
2023-03-19T06:53:08.783Z,40.10
2023-03-19T06:55:40.432Z,39.20
2023-03-19T06:58:10.853Z,38.70
2023-03-19T07:00:41.835Z,40.80
2023-03-19T07:03:12.536Z,44.10
2023-03-19T07:05:43.683Z,44.40
2023-03-19T07:08:14.055Z,39.60
2023-03-19T07:10:45.345Z,42.60
2023-03-19T07:13:16.082Z,39.30
2023-03-19T07:15:48.527Z,42.30
2023-03-19T07:18:19.791Z,40.70
2023-03-19T07:20:50.856Z,38.40
2023-03-19T07:23:21.500Z,37.20
2023-03-19T07:25:52.517Z,36.90
2023-03-19T07:28:23.165Z,36.40
2023-03-19T07:30:54.332Z,32.90
2023-03-19T07:33:24.705Z,33.50
2023-03-19T07:35:56.402Z,33.00
2023-03-19T07:38:27.004Z,32.60
2023-03-19T07:41:02.478Z,30.40
2023-03-19T07:43:33.470Z,33.60
2023-03-19T07:46:04.547Z,31.10
2023-03-19T07:48:34.952Z,31.70
2023-03-19T07:51:06.227Z,30.20
2023-03-19T07:53:36.808Z,30.70
2023-03-19T07:56:08.578Z,28.80
2023-03-19T07:58:38.939Z,25.70
2023-03-19T08:01:10.189Z,26.80
2023-03-19T08:03:40.764Z,26.70
2023-03-19T08:06:12.121Z,21.50
2023-03-19T08:08:42.545Z,21.30
2023-03-19T08:11:13.396Z,23.20
2023-03-19T08:13:43.800Z,22.10
2023-03-19T08:16:15.053Z,19.40
2023-03-19T08:18:45.785Z,20.90
2023-03-19T08:21:16.927Z,19.90
2023-03-19T08:23:47.561Z,18.20
2023-03-19T08:26:18.800Z,18.00
2023-03-19T08:28:49.175Z,19.30
2023-03-19T08:31:20.391Z,18.60
2023-03-19T08:33:50.935Z,18.80
2023-03-19T08:36:22.662Z,18.50
2023-03-19T08:38:55.010Z,17.10
2023-03-19T08:41:26.191Z,17.90
2023-03-19T08:43:56.594Z,16.80
2023-03-19T08:46:28.369Z,14.50
2023-03-19T08:48:58.882Z,15.00
2023-03-19T08:51:31.870Z,11.20
2023-03-19T08:54:02.705Z,10.40
2023-03-19T08:56:33.948Z,9.90
2023-03-19T08:59:04.473Z,8.70
2023-03-19T09:01:35.329Z,10.40
2023-03-19T09:04:06.242Z,11.40
2023-03-19T09:06:37.412Z,13.40
2023-03-19T09:09:07.927Z,13.20
2023-03-19T09:11:39.246Z,12.60
2023-03-19T09:14:11.707Z,12.30
2023-03-19T09:16:43.092Z,12.60
2023-03-19T09:19:13.686Z,12.40
2023-03-19T09:21:46.034Z,12.20
2023-03-19T09:24:16.388Z,12.30
2023-03-19T09:26:47.886Z,11.00
2023-03-19T09:29:18.228Z,12.20
2023-03-19T09:31:49.608Z,11.50
2023-03-19T09:34:19.976Z,10.90
2023-03-19T09:36:58.424Z,11.80
2023-03-19T09:39:29.306Z,11.40
2023-03-19T09:42:06.619Z,11.10
2023-03-19T09:44:38.258Z,10.10
2023-03-19T09:47:17.342Z,10.30
2023-03-19T09:49:49.369Z,9.20
2023-03-19T09:52:27.040Z,8.20
2023-03-19T09:54:58.746Z,8.50
2023-03-19T09:57:30.449Z,8.70
2023-03-19T10:00:01.510Z,8.00
2023-03-19T10:02:39.245Z,7.70
2023-03-19T10:05:21.184Z,7.30
2023-03-19T10:08:03.417Z,7.10
2023-03-19T10:10:44.056Z,7.10
2023-03-19T10:13:19.412Z,7.90
2023-03-19T10:15:51.690Z,7.20
2023-03-19T10:18:26.022Z,7.20
2023-03-19T10:20:59.681Z,7.10
2023-03-19T10:23:33.999Z,7.70
2023-03-19T10:26:06.108Z,8.60
2023-03-19T10:28:37.842Z,8.80
2023-03-19T10:31:19.306Z,8.30
2023-03-19T10:33:54.878Z,8.70
2023-03-19T10:36:27.965Z,8.60
2023-03-19T10:38:59.499Z,8.80
2023-03-19T10:41:36.161Z,7.90
2023-03-19T10:44:11.570Z,6.80
2023-03-19T10:46:42.331Z,7.30
2023-03-19T10:49:17.330Z,7.50
2023-03-19T10:51:48.135Z,7.60
2023-03-19T10:54:22.182Z,9.20
2023-03-19T10:56:53.374Z,9.20
2023-03-19T10:59:25.770Z,9.10
2023-03-19T11:01:59.866Z,9.70
2023-03-19T11:04:33.249Z,9.70
2023-03-19T11:07:10.595Z,11.90
2023-03-19T11:09:42.190Z,11.10
2023-03-19T11:12:18.981Z,11.60
2023-03-19T11:14:51.456Z,11.20
2023-03-19T11:17:27.090Z,10.80
2023-03-19T11:19:59.200Z,10.20
2023-03-19T11:22:31.824Z,9.10
2023-03-19T11:25:03.543Z,8.90
2023-03-19T11:27:35.093Z,8.80
2023-03-19T11:30:09.677Z,9.10
2023-03-19T11:32:53.544Z,7.50
2023-03-19T11:35:28.957Z,7.80
2023-03-19T11:38:04.709Z,9.20
2023-03-19T11:40:40.196Z,9.00
2023-03-19T11:43:22.728Z,9.10
2023-03-19T11:45:58.008Z,8.60
2023-03-19T11:48:35.182Z,8.50
2023-03-19T11:51:09.792Z,7.00
2023-03-19T11:53:45.097Z,6.00
2023-03-19T11:56:22.633Z,6.10
2023-03-19T11:59:06.879Z,6.40
2023-03-19T12:01:47.461Z,6.90
2023-03-19T12:04:23.718Z,6.20
2023-03-19T12:07:01.193Z,7.10
2023-03-19T12:09:37.356Z,6.50
2023-03-19T12:12:14.742Z,6.60
2023-03-19T12:14:52.753Z,6.50
2023-03-19T12:17:30.392Z,7.10
2023-03-19T12:20:07.965Z,7.20
2023-03-19T12:22:44.288Z,7.40
2023-03-19T12:25:31.449Z,7.10
2023-03-19T12:28:05.028Z,7.20
2023-03-19T12:33:18.139Z,6.80
2023-03-19T12:35:50.890Z,6.50
2023-03-19T12:38:25.663Z,6.00
2023-03-19T12:40:59.805Z,6.90
2023-03-19T12:43:33.693Z,6.70
2023-03-19T12:46:08.815Z,6.10
2023-03-19T12:48:42.598Z,6.60
2023-03-19T12:51:15.565Z,6.40
2023-03-19T12:56:18.956Z,6.40
2023-03-19T12:58:57.411Z,6.70
2023-03-19T13:01:32.046Z,6.10
2023-03-19T13:04:08.091Z,6.00
2023-03-19T13:06:40.286Z,6.50
2023-03-19T13:09:15.329Z,5.60
2023-03-19T13:11:48.715Z,6.40
2023-03-19T13:14:23.440Z,5.90
2023-03-19T13:16:56.664Z,6.00
2023-03-19T13:19:30.659Z,5.60
2023-03-19T13:22:03.603Z,5.70
2023-03-19T13:24:35.934Z,5.60
2023-03-19T13:27:07.885Z,5.70
2023-03-19T13:29:39.480Z,5.60
2023-03-19T13:32:23.762Z,5.90
2023-03-19T13:35:09.970Z,6.10
2023-03-19T13:37:42.884Z,5.90
2023-03-19T13:40:27.922Z,5.90
2023-03-19T13:42:58.744Z,5.80
2023-03-19T13:45:36.090Z,5.90
2023-03-19T13:48:24.379Z,5.90
2023-03-19T13:51:01.307Z,6.40
2023-03-19T13:53:39.493Z,5.60
2023-03-19T13:56:28.670Z,6.20
2023-03-19T13:59:13.344Z,5.70
2023-03-19T14:01:47.671Z,5.70
2023-03-19T14:04:20.102Z,5.40
2023-03-19T14:15:03.257Z,5.70
2023-03-19T14:17:35.427Z,5.50
2023-03-19T14:20:28.394Z,6.70
2023-03-19T14:23:23.482Z,6.10
2023-03-19T14:26:01.922Z,5.70
2023-03-19T14:28:36.850Z,5.90
2023-03-19T14:31:08.637Z,5.60
2023-03-19T14:33:43.645Z,5.20
2023-03-19T14:36:17.558Z,5.60
2023-03-19T14:38:51.200Z,5.50
2023-03-19T14:41:23.737Z,5.50
2023-03-19T14:44:02.947Z,6.00
2023-03-19T14:46:38.617Z,5.70
2023-03-19T14:49:26.314Z,6.30
2023-03-19T14:51:59.108Z,5.90
2023-03-19T14:56:59.371Z,5.50
2023-03-19T14:59:37.747Z,5.50
2023-03-19T15:02:19.335Z,6.50
2023-03-19T15:04:50.285Z,5.80
2023-03-19T15:07:23.011Z,6.50
2023-03-19T15:09:55.177Z,6.20
2023-03-19T15:12:39.982Z,6.10
2023-03-19T15:15:26.806Z,5.80
2023-03-19T15:18:04.149Z,5.90
2023-03-19T15:20:38.225Z,6.10
2023-03-19T15:23:25.841Z,6.20
2023-03-19T15:25:58.171Z,5.70
2023-03-19T15:28:29.966Z,6.20
2023-03-19T15:31:14.425Z,6.10
2023-03-19T15:33:53.376Z,5.70
2023-03-19T15:36:26.111Z,6.50
2023-03-19T15:39:01.291Z,6.40
2023-03-19T15:41:33.104Z,6.40
2023-03-19T15:44:06.817Z,6.40
2023-03-19T15:46:38.422Z,6.60
2023-03-19T15:49:11.901Z,6.10
2023-03-19T15:51:42.695Z,5.50
2023-03-19T15:54:14.287Z,4.80
2023-03-19T15:56:44.935Z,4.90
2023-03-19T15:59:16.545Z,5.00
2023-03-19T16:01:47.544Z,5.20
2023-03-19T16:04:21.280Z,5.50
2023-03-19T16:06:52.634Z,5.40
2023-03-19T16:09:26.245Z,5.10
2023-03-19T16:11:57.303Z,5.30
2023-03-19T16:14:33.056Z,5.60
2023-03-19T16:17:04.690Z,6.50
2023-03-19T16:19:36.877Z,6.40
2023-03-19T16:22:14.018Z,6.60
2023-03-19T16:24:46.177Z,6.80
2023-03-19T16:27:18.045Z,7.20
2023-03-19T16:29:50.109Z,6.20
2023-03-19T16:32:22.270Z,6.20
2023-03-19T16:34:54.029Z,6.40
2023-03-19T16:37:34.046Z,6.50
2023-03-19T16:40:17.721Z,6.60
2023-03-19T16:42:49.684Z,6.40
2023-03-19T16:45:27.676Z,6.80
2023-03-19T16:47:58.738Z,7.20
2023-03-19T16:50:32.681Z,14.20
2023-03-19T16:53:05.106Z,8.00
2023-03-19T16:55:37.006Z,6.80
2023-03-19T16:58:09.252Z,6.50
2023-03-19T17:00:40.703Z,6.50
2023-03-19T17:03:13.919Z,6.60
2023-03-19T17:05:46.454Z,7.00
2023-03-19T17:08:16.885Z,6.70
2023-03-19T17:10:50.163Z,6.70
2023-03-19T17:13:22.131Z,7.40
2023-03-19T17:18:27.807Z,7.20
2023-03-19T17:20:59.961Z,7.50
2023-03-19T17:23:30.701Z,7.20
2023-03-19T17:26:03.388Z,6.70
2023-03-19T17:28:34.011Z,7.60
2023-03-19T17:31:05.615Z,7.40
2023-03-19T17:33:36.720Z,8.10
2023-03-19T17:36:10.776Z,7.90
2023-03-19T17:38:42.064Z,8.40
2023-03-19T17:41:15.518Z,8.30
2023-03-19T17:43:46.836Z,10.80
2023-03-19T17:46:19.646Z,9.10
2023-03-19T17:48:51.365Z,9.60
2023-03-19T17:51:24.134Z,8.30
2023-03-19T17:53:55.668Z,9.30
2023-03-19T17:56:27.454Z,9.30
2023-03-19T17:58:58.266Z,10.40
2023-03-19T18:01:30.072Z,9.80
2023-03-19T18:04:02.307Z,9.80
2023-03-19T18:06:34.973Z,10.30
2023-03-19T18:09:05.911Z,10.60
2023-03-19T18:11:37.421Z,9.90
2023-03-19T18:14:08.106Z,10.10
2023-03-19T18:16:39.329Z,10.20
2023-03-19T18:19:16.998Z,9.30
2023-03-19T18:21:48.286Z,9.60
2023-03-19T18:24:19.015Z,9.40
2023-03-19T18:26:49.892Z,10.30
2023-03-19T18:29:20.800Z,9.80
2023-03-19T18:31:53.003Z,11.10
2023-03-19T18:34:23.696Z,11.10
2023-03-19T18:36:54.855Z,10.80
2023-03-19T18:39:25.878Z,10.20
2023-03-19T18:41:57.628Z,10.00
2023-03-19T18:44:28.369Z,10.10
2023-03-19T18:46:59.880Z,10.00
2023-03-19T18:49:31.174Z,10.70
2023-03-19T18:52:03.752Z,10.20
2023-03-19T18:54:34.598Z,11.20
2023-03-19T18:57:06.465Z,9.80
2023-03-19T18:59:37.282Z,9.30
2023-03-19T19:02:21.686Z,9.20
2023-03-19T19:04:52.247Z,9.60
2023-03-19T19:07:23.797Z,9.20
2023-03-19T19:09:54.395Z,9.30
2023-03-19T19:12:26.330Z,9.40
2023-03-19T19:14:58.811Z,9.90
2023-03-19T19:17:31.778Z,8.60
2023-03-19T19:20:02.373Z,10.00
2023-03-19T19:22:33.371Z,9.80
2023-03-19T19:25:03.859Z,9.80
2023-03-19T19:27:35.304Z,9.10
2023-03-19T19:30:07.107Z,9.70
2023-03-19T19:32:38.284Z,9.90
2023-03-19T19:35:15.430Z,10.20
2023-03-19T19:37:47.699Z,9.60
2023-03-19T19:40:19.324Z,9.40
2023-03-19T19:42:52.500Z,9.60
2023-03-19T19:45:27.709Z,10.10
2023-03-19T19:47:59.292Z,9.80
2023-03-19T19:50:29.694Z,10.70
2023-03-19T19:53:01.079Z,9.10
2023-03-19T19:55:31.487Z,10.10
2023-03-19T19:58:03.164Z,11.80
2023-03-19T20:00:33.776Z,11.20
2023-03-19T20:03:05.804Z,11.40
2023-03-19T20:05:36.582Z,11.30
2023-03-19T20:08:09.263Z,12.90
2023-03-19T20:10:39.880Z,13.60
2023-03-19T20:13:19.831Z,13.70
2023-03-19T20:15:50.537Z,14.70
2023-03-19T20:18:25.186Z,15.10
2023-03-19T20:20:55.940Z,17.50
2023-03-19T20:23:27.316Z,19.40
2023-03-19T20:25:58.521Z,20.40
2023-03-19T20:28:32.776Z,20.60
2023-03-19T20:31:03.794Z,21.60
2023-03-19T20:33:37.333Z,21.90
2023-03-19T20:38:37.629Z,21.90
2023-03-19T20:41:16.138Z,21.90
2023-03-19T20:43:47.747Z,21.00
2023-03-19T20:46:19.962Z,20.20
2023-03-19T20:48:51.083Z,20.00
2023-03-19T20:51:25.061Z,19.90
2023-03-19T20:53:56.909Z,18.20
2023-03-19T20:56:27.810Z,16.70
2023-03-19T20:58:59.037Z,11.50
2023-03-19T21:01:30.094Z,11.30
2023-03-19T21:04:01.360Z,10.50
2023-03-19T21:06:49.853Z,11.10
2023-03-19T21:09:23.687Z,10.60
2023-03-19T21:11:54.304Z,10.90
2023-03-19T21:14:27.065Z,16.20
2023-03-19T21:16:57.916Z,14.40
2023-03-19T21:19:28.964Z,15.10
2023-03-19T21:21:59.799Z,18.20
2023-03-19T21:24:31.449Z,18.20
2023-03-19T21:27:04.000Z,17.60
2023-03-19T21:29:35.379Z,18.80
2023-03-19T21:32:11.330Z,18.80
2023-03-19T21:34:42.379Z,20.50
2023-03-19T21:37:13.008Z,21.10
2023-03-19T21:39:44.766Z,21.90
2023-03-19T21:42:17.456Z,23.30
2023-03-19T21:44:48.791Z,21.30
2023-03-19T21:47:22.399Z,25.10
2023-03-19T21:49:53.117Z,22.60
2023-03-19T21:52:24.070Z,28.10
2023-03-19T21:54:56.095Z,28.20
2023-03-19T21:57:26.987Z,28.50
2023-03-19T21:59:58.175Z,25.80
2023-03-19T22:02:40.772Z,30.70
2023-03-19T22:05:17.108Z,31.10
2023-03-19T22:07:47.916Z,30.00
2023-03-19T22:10:19.655Z,30.90
2023-03-19T22:12:50.642Z,31.30
2023-03-19T22:15:23.424Z,30.00
2023-03-19T22:17:54.018Z,31.60
2023-03-19T22:20:26.014Z,32.00
2023-03-19T22:22:56.810Z,31.20
2023-03-19T22:25:31.237Z,31.70
2023-03-19T22:28:05.156Z,29.50
2023-03-19T22:30:37.141Z,28.60
2023-03-19T22:33:14.054Z,29.70
2023-03-19T22:35:45.295Z,28.20
2023-03-19T22:38:16.069Z,26.00
2023-03-19T22:40:48.705Z,29.30
2023-03-19T22:43:22.757Z,27.40
2023-03-19T22:45:55.515Z,28.80
2023-03-19T22:48:26.575Z,30.80
2023-03-19T22:50:57.777Z,33.80
2023-03-19T22:53:30.716Z,32.00
2023-03-19T22:56:01.831Z,35.30
2023-03-19T22:58:32.461Z,32.00
2023-03-19T23:01:03.635Z,31.20
2023-03-19T23:03:35.446Z,32.30
2023-03-19T23:06:14.476Z,28.50
2023-03-19T23:08:47.903Z,31.70
2023-03-19T23:11:19.245Z,33.50
2023-03-19T23:13:49.876Z,38.20
2023-03-19T23:16:22.246Z,36.30
2023-03-19T23:21:24.750Z,34.30
2023-03-19T23:23:55.334Z,32.80
2023-03-19T23:26:28.571Z,34.60
2023-03-19T23:29:01.258Z,31.70
2023-03-19T23:31:32.175Z,33.60
2023-03-19T23:34:02.919Z,34.50
2023-03-19T23:36:34.160Z,37.10
2023-03-19T23:39:05.072Z,36.30
2023-03-19T23:41:39.448Z,35.60
2023-03-19T23:44:13.046Z,37.60
2023-03-19T23:46:44.295Z,35.30
2023-03-19T23:49:16.180Z,35.20
2023-03-19T23:51:47.925Z,36.50
2023-03-19T23:54:28.510Z,38.70
2023-03-19T23:57:01.208Z,35.20
2023-03-19T23:59:33.799Z,37.70
